地図

経路データ

SID SEASON NUMBER BASIN SUBBASIN NAME ISO_TIME NATURE LAT LON WMO_WIND WMO_PRES WMO_AGENCY TRACK_TYPE DIST2LAND LANDFALL IFLAG USA_AGENCY USA_ATCF_ID USA_LAT USA_LON USA_RECORD USA_STATUS USA_WIND USA_PRES USA_SSHS USA_R34_NE USA_R34_SE USA_R34_SW USA_R34_NW USA_R50_NE USA_R50_SE USA_R50_SW USA_R50_NW USA_R64_NE USA_R64_SE USA_R64_SW USA_R64_NW USA_POCI USA_ROCI USA_RMW USA_EYE TOKYO_LAT TOKYO_LON TOKYO_GRADE TOKYO_WIND TOKYO_PRES TOKYO_R50_DIR TOKYO_R50_LONG TOKYO_R50_SHORT TOKYO_R30_DIR TOKYO_R30_LONG TOKYO_R30_SHORT TOKYO_LAND CMA_LAT CMA_LON CMA_CAT CMA_WIND CMA_PRES HKO_LAT HKO_LON HKO_CAT HKO_WIND HKO_PRES NEWDELHI_LAT NEWDELHI_LON NEWDELHI_GRADE NEWDELHI_WIND NEWDELHI_PRES NEWDELHI_CI NEWDELHI_DP NEWDELHI_POCI REUNION_LAT REUNION_LON REUNION_TYPE REUNION_WIND REUNION_PRES REUNION_TNUM REUNION_CI REUNION_RMW REUNION_R34_NE REUNION_R34_SE REUNION_R34_SW REUNION_R34_NW REUNION_R50_NE REUNION_R50_SE REUNION_R50_SW REUNION_R50_NW REUNION_R64_NE REUNION_R64_SE REUNION_R64_SW REUNION_R64_NW BOM_LAT BOM_LON BOM_TYPE BOM_WIND BOM_PRES BOM_TNUM BOM_CI BOM_RMW BOM_R34_NE BOM_R34_SE BOM_R34_SW BOM_R34_NW BOM_R50_NE BOM_R50_SE BOM_R50_SW BOM_R50_NW BOM_R64_NE BOM_R64_SE BOM_R64_SW BOM_R64_NW BOM_ROCI BOM_POCI BOM_EYE BOM_POS_METHOD BOM_PRES_METHOD NADI_LAT NADI_LON NADI_CAT NADI_WIND NADI_PRES WELLINGTON_LAT WELLINGTON_LON WELLINGTON_WIND WELLINGTON_PRES DS824_LAT DS824_LON DS824_STAGE DS824_WIND DS824_PRES TD9636_LAT TD9636_LON TD9636_STAGE TD9636_WIND TD9636_PRES TD9635_LAT TD9635_LON TD9635_WIND TD9635_PRES TD9635_ROCI NEUMANN_LAT NEUMANN_LON NEUMANN_CLASS NEUMANN_WIND NEUMANN_PRES MLC_LAT MLC_LON MLC_CLASS MLC_WIND MLC_PRES USA_GUST BOM_GUST BOM_GUST_PER REUNION_GUST REUNION_GUST_PER USA_SEAHGT USA_SEARAD_NE USA_SEARAD_SE USA_SEARAD_SW USA_SEARAD_NW STORM_SPEED STORM_DIR
1949252N17143 1949 72 WP MM NELLY 1949-09-08 12:00:00 TS 16.7000 142.800 main 1929 1898 __O___________ -1 16.7000 142.800 0 1000 6 280
1949252N17143 1949 72 WP MM NELLY 1949-09-08 15:00:00 TS 16.7526 142.500 main 1901 1869 __P___________ -1 16.7526 142.500 0 1000 6 280
1949252N17143 1949 72 WP MM NELLY 1949-09-08 18:00:00 TS 16.8000 142.200 main 1869 1838 __O___________ -1 16.8000 142.200 0 1000 6 279
1949252N17143 1949 72 WP MM NELLY 1949-09-08 21:00:00 TS 16.8425 141.900 main 1838 1810 __P___________ -1 16.8425 141.900 0 1000 6 280
1949252N17143 1949 72 WP MM NELLY 1949-09-09 00:00:00 TS 16.9000 141.600 main 1810 1782 __O___________ -1 16.9000 141.600 0 1000 6 286
1949252N17143 1949 72 WP MM NELLY 1949-09-09 03:00:00 TS 17.0074 141.315 main 1782 1755 __P___________ -1 17.0074 141.315 0 1000 6 289
1949252N17143 1949 72 WP MM NELLY 1949-09-09 06:00:00 TS 17.1000 141.000 main 1755 1714 __O___________ -1 17.1000 141.000 0 1000 7 279
1949252N17143 1949 72 WP MM NELLY 1949-09-09 09:00:00 TS 17.1075 140.615 main 1714 1646 __P___________ -1 17.1075 140.615 0 1000 10 258
1949252N17143 1949 72 WP MM NELLY 1949-09-09 12:00:00 TS 16.8800 139.960 main 1646 1569 __O_______O___ -1 17.1000 140.200 1 29 1000 16.0000 139.000 7 13 254
1949252N17143 1949 72 WP MM NELLY 1949-09-09 15:00:00 TS 16.7352 139.288 main 1569 1504 __P_______P___ -1 17.1500 139.793 1 29 1000 15.9057 138.277 7 13 258
1949252N17143 1949 72 WP MM NELLY 1949-09-09 18:00:00 TS 16.6077 138.630 main 1494 1440 __O_______P___ -1 17.2000 139.400 1 29 1000 15.8179 137.604 7 12 258
1949252N17143 1949 72 WP MM NELLY 1949-09-09 21:00:00 TS 16.4730 138.032 main 1430 1396 __P_______P___ -1 17.1999 139.035 1 29 998 15.7461 137.029 7 10 260
1949252N17143 1949 72 WP MM NELLY 1949-09-10 00:00:00 TS 16.4500 137.650 main 1399 1369 __O_______O___ -1 17.2000 138.700 1 29 997 15.7000 136.600 7 6 269
1949252N17143 1949 72 WP MM NELLY 1949-09-10 03:00:00 TS 16.4648 137.367 main 1369 1349 __P_______P___ -1 17.2425 138.385 1 33 995 15.6871 136.348 7 5 276
1949252N17143 1949 72 WP MM NELLY 1949-09-10 06:00:00 TS 16.5019 137.168 main 1349 1329 __O_______P___ -1 17.3000 138.100 2 38 994 15.7039 136.235 7 3 283
1949252N17143 1949 72 WP MM NELLY 1949-09-10 09:00:00 TS 16.5431 137.027 main 1329 1323 __P_______P___ -1 17.3424 137.850 2 38 992 15.7437 136.205 7 3 291
1949252N17143 1949 72 WP MM NELLY 1949-09-10 12:00:00 TS 16.6000 136.900 main 1323 1303 __O_______O___ -1 17.4000 137.600 2 38 991 15.8000 136.200 7 3 285
1949252N17143 1949 72 WP MM NELLY 1949-09-10 15:00:00 TS 16.6257 136.705 main 1303 1287 __P_______P___ -1 17.4924 137.330 2 43 989 15.7590 136.080 7 4 281
1949252N17143 1949 72 WP MM NELLY 1949-09-10 18:00:00 TS 16.6737 136.491 main 1287 1267 __O_______P___ -1 17.6000 137.000 3 48 988 15.7473 135.981 7 4 288
1949252N17143 1949 72 WP MM NELLY 1949-09-10 21:00:00 TS 16.7610 136.265 main 1271 1252 __P_______P___ -1 17.6849 136.587 3 48 988 15.8370 135.943 7 5 303
1949252N17143 1949 72 WP MM NELLY 1949-09-11 00:00:00 TS 16.9500 136.050 main 1260 1251 __O_______O___ -1 17.8000 136.100 3 48 988 16.1000 136.000 7 7 331
1949252N17143 1949 72 WP MM NELLY 1949-09-11 03:00:00 TS 17.3416 135.929 main 1255 1255 __P_______P___ -1 17.9850 135.558 3 48 988 16.6981 136.301 7 9 347
1949252N17143 1949 72 WP MM NELLY 1949-09-11 06:00:00 TS 17.8280 135.842 main 1271 1271 __O_______P___ -1 18.2000 135.000 3 48 988 17.4559 136.684 7 10 350
1949252N17143 1949 72 WP MM NELLY 1949-09-11 09:00:00 TS 18.3177 135.759 main 1298 1295 __P_______P___ -1 18.3998 134.492 3 48 988 18.2356 137.026 7 10 346
1949252N17143 1949 72 WP MM NELLY 1949-09-11 12:00:00 TS 18.7500 135.600 main 1309 1294 __O_______O___ -1 18.6000 134.000 3 48 988 18.9000 137.200 7 8 329
1949252N17143 1949 72 WP MM NELLY 1949-09-11 15:00:00 TS 19.0322 135.298 main 1294 1266 __P_______P___ -1 18.7999 133.492 3 48 988 19.2644 137.103 7 8 307
1949252N17143 1949 72 WP MM NELLY 1949-09-11 18:00:00 TS 19.2491 134.908 main 1266 1239 __O_______P___ -1 19.0000 133.000 3 48 988 19.4983 136.816 7 9 296
1949252N17143 1949 72 WP MM NELLY 1949-09-11 21:00:00 TS 19.4214 134.460 main 1239 1159 __P_______P___ -1 19.1848 132.550 3 53 987 19.6580 136.371 7 14 283
1949252N17143 1949 72 WP MM NELLY 1949-09-12 00:00:00 TS 19.5727 133.418 main 1150 1093 O_O______OOO__ jtwc_wp WP131949 19.5000 132.000 30 -1 19.4000 132.100 3 58 986 19.5000 132.000 TC 30 19.8000 135.800 1 30 19.5000 132.000 30 1000 120 18 282
1949252N17143 1949 72 WP MM NELLY 1949-09-12 03:00:00 TS 19.8124 132.562 main 1093 1023 P_P______PPP__ WP131949 19.7656 131.451 32 -1 19.7000 131.600 3 58 985 19.7656 131.451 TC 32 19.9950 135.192 1 33 19.7656 131.451 32 998 120 16 288
1949252N17143 1949 72 WP MM NELLY 1949-09-12 06:00:00 TS 20.0435 131.840 main 1013 965 O_O______OPO__ jtwc_wp WP131949 20.0000 131.000 35 0 20.0000 131.100 3 58 984 20.0000 131.000 TC 35 20.1848 134.471 1 37 20.0000 131.000 35 996 120 13 289
1949252N17143 1949 72 WP MM NELLY 1949-09-12 09:00:00 TS 20.2316 131.281 main 965 929 P_P______PPP__ WP131949 20.1921 130.700 40 0 20.1998 130.642 3 63 983 20.1921 130.700 TC 40 20.3820 133.664 1 41 20.1921 130.700 40 992 180 10 293
1949252N17143 1949 72 WP MM NELLY 1949-09-12 12:00:00 TS 20.4400 130.840 main 918 876 O_O______OOO__ jtwc_wp WP131949 20.4000 130.400 45 0 20.4000 130.200 4 68 982 20.4000 130.400 TC 45 20.6000 132.800 2 45 20.4000 130.400 45 989 240 11 298
1949252N17143 1949 72 WP MM NELLY 1949-09-12 15:00:00 TS 20.7306 130.261 main 876 827 P_P______PPP__ WP131949 20.7004 129.893 52 0 20.6848 129.757 4 72 981 20.7004 129.893 TC 52 20.8673 131.870 2 53 20.7004 129.893 52 983 300 12 299
1949252N17143 1949 72 WP MM NELLY 1949-09-12 18:00:00 TS 21.0305 129.680 main 827 796 O_O______OPO__ jtwc_wp WP131949 21.0000 129.400 60 0 21.0000 129.300 4 77 980 21.0000 129.400 TC 60 21.1526 130.899 2 62 21.0000 129.400 60 978 360 11 300
1949252N17143 1949 72 WP MM NELLY 1949-09-12 21:00:00 TS 21.2654 129.252 main 800 762 P_P______PPP__ WP131949 21.1919 129.164 70 1 21.3148 128.815 4 77 980 21.1919 129.164 TC 70 21.4362 129.954 2 71 21.1919 129.164 70 971 360 9 300
1949252N17143 1949 72 WP MM NELLY 1949-09-13 00:00:00 TS 21.5000 128.820 main 762 720 O_O______OOO__ jtwc_wp WP131949 21.4000 128.900 80 1 21.6000 128.300 4 77 980 21.4000 128.900 TC 80 21.7000 129.100 3 80 21.4000 128.900 80 965 360 11 299
1949252N17143 1949 72 WP MM NELLY 1949-09-13 03:00:00 TS 21.7799 128.237 main 710 649 P_P______PPP__ WP131949 21.7205 128.330 85 2 21.8074 127.757 4 77 980 21.7205 128.330 TC 85 21.9305 128.439 3 82 21.7205 128.330 85 958 300 13 298
1949252N17143 1949 72 WP MM NELLY 1949-09-13 06:00:00 TS 22.0882 127.635 main 640 589 O_O______OPO__ jtwc_wp WP131949 22.1000 127.700 90 2 22.0000 127.200 4 77 980 22.1000 127.700 TC 90 22.1408 127.873 3 85 22.1000 127.700 90 952 240 12 302
1949252N17143 1949 72 WP MM NELLY 1949-09-13 09:00:00 TS 22.4218 127.149 main 579 528 P_P______PPP__ WP131949 22.5070 127.250 90 2 22.2573 126.650 4 77 980 22.5070 127.250 TC 90 22.3309 127.346 3 87 22.5070 127.250 90 948 240 11 306
1949252N17143 1949 72 WP MM NELLY 1949-09-13 12:00:00 TS 22.7400 126.660 main 528 458 O_O______OOO__ jtwc_wp WP131949 22.9000 126.800 90 2 22.5000 126.100 4 77 980 22.9000 126.800 TC 90 22.5000 126.800 4 90 22.9000 126.800 90 944 240 11 301
1949252N17143 1949 72 WP MM NELLY 1949-09-13 15:00:00 TS 23.0004 126.089 main 458 393 P_P______PPP__ WP131949 23.2299 126.230 90 2 22.6646 125.565 4 77 980 23.2299 126.230 TC 90 22.6475 126.192 4 90 23.2299 126.230 90 942 270 12 294
1949252N17143 1949 72 WP MM NELLY 1949-09-13 18:00:00 TS 23.2385 125.462 main 393 314 O_O______OPO__ jtwc_wp WP131949 23.5000 125.600 90 2 22.8000 125.000 4 77 980 23.5000 125.600 TC 90 22.7769 125.526 4 90 23.5000 125.600 90 940 300 13 292
1949252N17143 1949 72 WP MM NELLY 1949-09-13 21:00:00 TS 23.4686 124.799 main 314 254 P_P______PPP__ WP131949 23.7377 124.920 90 2 22.9490 124.425 4 77 980 23.7377 124.920 TC 90 22.8927 124.823 4 90 23.7377 124.920 90 939 330 13 289
1949252N17143 1949 72 WP MM NELLY 1949-09-14 00:00:00 TS 23.6588 124.147 main 240 198 O_O______OOO__ jtwc_wp WP131949 23.9000 124.300 90 2 23.1000 123.700 4 77 980 23.9000 124.300 TC 90 23.0000 124.100 4 90 23.9000 124.300 90 939 360 11 288
1949252N17143 1949 72 WP MM NELLY 1949-09-14 03:00:00 TS 23.7971 123.703 main 198 144 P_P______P_P__ WP131949 23.9692 124.042 92 2 23.2808 122.688 4 72 982 23.9692 124.042 TC 92 4 23.9692 124.042 92 941 330 10 281
1949252N17143 1949 72 WP MM NELLY 1949-09-14 06:00:00 TS 23.8500 123.025 main 130 30 O_O______O_O__ jtwc_wp WP131949 24.0000 123.500 95 2 23.4000 121.600 4 68 984 24.0000 123.500 TC 95 4 24.0000 123.500 95 944 300 18 273
1949252N17143 1949 72 WP MM NELLY 1949-09-14 09:00:00 TS 23.8896 121.729 main 20 0 P_P______P_P__ WP131949 24.0597 122.088 90 2 23.3794 120.654 4 63 985 24.0597 122.088 TC 90 4 24.0597 122.088 90 954 270 26 271
1949252N17143 1949 72 WP MM NELLY 1949-09-14 12:00:00 TS 23.8867 120.167 main 10 10 O_O______O_O__ jtwc_wp WP131949 24.1000 120.300 85 2 23.3000 119.800 3 58 986 24.1000 120.300 TC 85 24.1000 120.300 85 965 240 28 270
1949252N17143 1949 72 WP MM NELLY 1949-09-14 15:00:00 TS 23.9106 118.701 main 67 0 P_P______P_P__ WP131949 24.1911 118.562 70 1 23.2493 119.028 3 48 988 24.1911 118.562 TC 70 24.1111 118.600 70 972 210 25 269
1949252N17143 1949 72 WP MM NELLY 1949-09-14 18:00:00 TS 23.8231 117.400 main 0 0 O_O______O_O__ jtwc_wp WP131949 24.1000 117.000 55 0 23.2000 118.300 2 38 990 24.1000 117.000 TC 55 24.1000 117.000 55 980 180 22 257
1949252N17143 1949 72 WP MM NELLY 1949-09-14 21:00:00 TS 23.4227 116.413 main 0 0 P_P______P____ WP131949 23.5852 115.863 52 0 23.0976 117.512 2 33 995 23.5852 115.863 TC 52 18 244
1949252N17143 1949 72 WP MM NELLY 1949-09-15 00:00:00 TS 23.0333 115.600 main 0 0 O_O______O____ jtwc_wp WP131949 23.0000 115.000 50 0 23.1000 116.800 1 29 1000 23.0000 115.000 TC 50 15 250
1949252N17143 1949 72 WP MM NELLY 1949-09-15 03:00:00 TS 22.9084 114.892 main 0 0 P_P______P____ WP131949 22.7041 114.214 45 0 23.3171 116.248 1 23 1000 22.7041 114.214 TC 45 12 264
1949252N17143 1949 72 WP MM NELLY 1949-09-15 06:00:00 TS 22.9000 114.267 main 0 0 O_O______O____ jtwc_wp WP131949 22.5000 113.500 40 0 23.7000 115.800 0 17 1001 22.5000 113.500 TC 40 12 270
1949252N17143 1949 72 WP MM NELLY 1949-09-15 09:00:00 TS 22.9033 113.639 main 0 0 P_P______P____ WP131949 22.2660 112.761 35 0 24.1778 115.393 0 17 1001 22.2660 112.761 TC 35 12 270
1949252N17143 1949 72 WP MM NELLY 1949-09-15 12:00:00 TS 22.9000 113.000 main 0 O_O______O____ jtwc_wp WP131949 22.0000 112.000 30 -1 24.7000 115.000 0 17 1002 22.0000 112.000 TC 30 12 270

デジタル台風データ・検索

IBTrACS Databaseについて

本データベースは、米国NOAAが公開する1842年以降の世界の熱帯低気圧のベストトラックデータアーカイブInternational Best Track Archive for Climate Stewardship (IBTrACS)を、ウェブで閲覧しやすい形式に変換したものです。

最終更新日:2021-12-03